sensor_id;sensor_type;location;lat;lon;timestamp;P1;durP1;ratioP1;P2;durP2;ratioP2
31348;SDS011;17976;48.480;11.946;2023-05-21T13:58:32;6.40;;;4.78;;
31348;SDS011;17976;48.480;11.946;2023-05-21T14:01:00;7.40;;;5.45;;
31348;SDS011;17976;48.480;11.946;2023-05-21T14:03:26;6.20;;;4.97;;
31348;SDS011;17976;48.480;11.946;2023-05-21T14:05:52;7.75;;;5.63;;
31348;SDS011;17976;48.480;11.946;2023-05-21T14:08:18;8.48;;;4.88;;
31348;SDS011;17976;48.480;11.946;2023-05-21T14:10:45;7.05;;;4.78;;
31348;SDS011;17976;48.480;11.946;2023-05-21T14:13:11;7.65;;;5.00;;
31348;SDS011;17976;48.480;11.946;2023-05-21T14:15:37;7.43;;;5.20;;
31348;SDS011;17976;48.480;11.946;2023-05-21T14:18:04;7.43;;;5.03;;
31348;SDS011;17976;48.480;11.946;2023-05-21T14:20:33;7.20;;;4.30;;
31348;SDS011;17976;48.480;11.946;2023-05-21T14:23:00;6.47;;;4.70;;
31348;SDS011;17976;48.480;11.946;2023-05-21T14:25:26;6.97;;;4.85;;
31348;SDS011;17976;48.480;11.946;2023-05-21T14:27:52;6.15;;;4.22;;
31348;SDS011;17976;48.480;11.946;2023-05-21T14:30:18;12.70;;;5.22;;
31348;SDS011;17976;48.480;11.946;2023-05-21T14:32:44;12.65;;;5.38;;
31348;SDS011;17976;48.480;11.946;2023-05-21T14:35:10;8.20;;;4.47;;
31348;SDS011;17976;48.480;11.946;2023-05-21T14:37:36;8.90;;;4.90;;
31348;SDS011;17976;48.480;11.946;2023-05-21T14:40:02;6.38;;;5.00;;
31348;SDS011;17976;48.480;11.946;2023-05-21T14:42:31;6.63;;;5.22;;
31348;SDS011;17976;48.480;11.946;2023-05-21T14:44:57;6.70;;;5.05;;
31348;SDS011;17976;48.480;11.946;2023-05-21T14:47:23;9.55;;;4.97;;
31348;SDS011;17976;48.480;11.946;2023-05-21T14:49:49;8.20;;;4.85;;
31348;SDS011;17976;48.480;11.946;2023-05-21T14:52:15;6.90;;;4.85;;
31348;SDS011;17976;48.480;11.946;2023-05-21T14:54:41;9.88;;;5.40;;
31348;SDS011;17976;48.480;11.946;2023-05-21T14:57:07;7.80;;;5.15;;
31348;SDS011;17976;48.480;11.946;2023-05-21T14:59:33;5.93;;;4.47;;
31348;SDS011;17976;48.480;11.946;2023-05-21T15:01:59;5.93;;;4.90;;
31348;SDS011;17976;48.480;11.946;2023-05-21T15:04:25;9.32;;;5.25;;
31348;SDS011;17976;48.480;11.946;2023-05-21T15:06:51;6.93;;;5.10;;
31348;SDS011;17976;48.480;11.946;2023-05-21T15:09:17;8.98;;;5.20;;
31348;SDS011;17976;48.480;11.946;2023-05-21T15:11:43;7.28;;;4.75;;
31348;SDS011;17976;48.480;11.946;2023-05-21T15:14:10;7.57;;;4.70;;
31348;SDS011;17976;48.480;11.946;2023-05-21T15:16:36;6.43;;;5.00;;
31348;SDS011;17976;48.480;11.946;2023-05-21T15:19:02;9.20;;;4.70;;
31348;SDS011;17976;48.480;11.946;2023-05-21T15:21:28;5.90;;;4.70;;
31348;SDS011;17976;48.480;11.946;2023-05-21T15:23:54;5.45;;;4.28;;
31348;SDS011;17976;48.480;11.946;2023-05-21T15:26:20;8.48;;;4.65;;
31348;SDS011;17976;48.480;11.946;2023-05-21T15:28:49;8.23;;;4.90;;
31348;SDS011;17976;48.480;11.946;2023-05-21T15:31:15;6.55;;;4.80;;
31348;SDS011;17976;48.480;11.946;2023-05-21T15:33:40;8.27;;;5.30;;
31348;SDS011;17976;48.480;11.946;2023-05-21T15:36:06;5.50;;;4.90;;
31348;SDS011;17976;48.480;11.946;2023-05-21T15:38:33;7.13;;;4.88;;
31348;SDS011;17976;48.480;11.946;2023-05-21T15:40:58;8.15;;;5.20;;
31348;SDS011;17976;48.480;11.946;2023-05-21T15:43:24;6.55;;;4.25;;
31348;SDS011;17976;48.480;11.946;2023-05-21T15:45:50;10.57;;;4.93;;
31348;SDS011;17976;48.480;11.946;2023-05-21T15:48:16;5.93;;;4.85;;
31348;SDS011;17976;48.480;11.946;2023-05-21T15:50:47;7.20;;;4.60;;
31348;SDS011;17976;48.480;11.946;2023-05-21T15:53:13;6.80;;;4.55;;
31348;SDS011;17976;48.480;11.946;2023-05-21T15:55:39;7.18;;;5.00;;
31348;SDS011;17976;48.480;11.946;2023-05-21T15:58:05;8.05;;;4.55;;
31348;SDS011;17976;48.480;11.946;2023-05-21T16:00:31;8.65;;;4.65;;
31348;SDS011;17976;48.480;11.946;2023-05-21T16:02:57;6.57;;;4.93;;
31348;SDS011;17976;48.480;11.946;2023-05-21T16:05:23;10.27;;;4.95;;
31348;SDS011;17976;48.480;11.946;2023-05-21T16:07:49;11.25;;;5.00;;
31348;SDS011;17976;48.480;11.946;2023-05-21T16:10:15;9.70;;;4.65;;
31348;SDS011;17976;48.480;11.946;2023-05-21T16:12:41;6.43;;;4.90;;
31348;SDS011;17976;48.480;11.946;2023-05-21T16:15:07;7.10;;;5.50;;
31348;SDS011;17976;48.480;11.946;2023-05-21T16:17:33;7.82;;;4.75;;
31348;SDS011;17976;48.480;11.946;2023-05-21T16:19:59;8.02;;;5.32;;
31348;SDS011;17976;48.480;11.946;2023-05-21T16:22:25;9.02;;;5.90;;
31348;SDS011;17976;48.480;11.946;2023-05-21T16:24:53;7.30;;;5.30;;
31348;SDS011;17976;48.480;11.946;2023-05-21T16:27:19;8.38;;;5.90;;
31348;SDS011;17976;48.480;11.946;2023-05-21T16:29:45;8.38;;;5.28;;
31348;SDS011;17976;48.480;11.946;2023-05-21T16:32:11;10.45;;;5.30;;
31348;SDS011;17976;48.480;11.946;2023-05-21T16:34:37;9.55;;;5.15;;
31348;SDS011;17976;48.480;11.946;2023-05-21T16:37:03;10.05;;;5.45;;
31348;SDS011;17976;48.480;11.946;2023-05-21T16:39:31;8.27;;;5.38;;
31348;SDS011;17976;48.480;11.946;2023-05-21T16:41:57;7.50;;;5.13;;
31348;SDS011;17976;48.480;11.946;2023-05-21T16:44:24;6.40;;;5.47;;
31348;SDS011;17976;48.480;11.946;2023-05-21T16:46:50;8.20;;;5.35;;
31348;SDS011;17976;48.480;11.946;2023-05-21T16:49:16;8.65;;;4.90;;
31348;SDS011;17976;48.480;11.946;2023-05-21T16:51:43;7.75;;;6.03;;
31348;SDS011;17976;48.480;11.946;2023-05-21T16:54:09;6.78;;;4.90;;
31348;SDS011;17976;48.480;11.946;2023-05-21T16:56:35;11.65;;;8.48;;
31348;SDS011;17976;48.480;11.946;2023-05-21T16:59:01;9.65;;;5.65;;
31348;SDS011;17976;48.480;11.946;2023-05-21T17:01:27;11.60;;;6.05;;
31348;SDS011;17976;48.480;11.946;2023-05-21T17:03:53;16.45;;;6.43;;
31348;SDS011;17976;48.480;11.946;2023-05-21T17:06:19;8.15;;;5.63;;
31348;SDS011;17976;48.480;11.946;2023-05-21T17:08:45;9.40;;;6.28;;
31348;SDS011;17976;48.480;11.946;2023-05-21T17:11:11;8.23;;;5.70;;
31348;SDS011;17976;48.480;11.946;2023-05-21T17:13:37;11.32;;;5.95;;
31348;SDS011;17976;48.480;11.946;2023-05-21T17:16:03;8.88;;;5.90;;
31348;SDS011;17976;48.480;11.946;2023-05-21T17:18:29;10.77;;;5.47;;
31348;SDS011;17976;48.480;11.946;2023-05-21T17:20:55;10.35;;;5.95;;
31348;SDS011;17976;48.480;11.946;2023-05-21T17:23:22;9.80;;;6.00;;
31348;SDS011;17976;48.480;11.946;2023-05-21T17:25:48;9.15;;;5.47;;
31348;SDS011;17976;48.480;11.946;2023-05-21T17:28:15;7.05;;;5.57;;
31348;SDS011;17976;48.480;11.946;2023-05-21T17:30:41;9.80;;;5.75;;
31348;SDS011;17976;48.480;11.946;2023-05-21T17:33:07;7.95;;;5.45;;
31348;SDS011;17976;48.480;11.946;2023-05-21T17:35:34;11.70;;;5.65;;
31348;SDS011;17976;48.480;11.946;2023-05-21T17:38:00;8.85;;;5.75;;
31348;SDS011;17976;48.480;11.946;2023-05-21T17:40:26;7.65;;;5.65;;
31348;SDS011;17976;48.480;11.946;2023-05-21T17:42:52;8.55;;;6.15;;
31348;SDS011;17976;48.480;11.946;2023-05-21T17:45:18;10.20;;;6.28;;
31348;SDS011;17976;48.480;11.946;2023-05-21T17:47:44;10.88;;;5.93;;
31348;SDS011;17976;48.480;11.946;2023-05-21T17:50:10;9.40;;;5.60;;
31348;SDS011;17976;48.480;11.946;2023-05-21T17:52:36;7.93;;;6.10;;
31348;SDS011;17976;48.480;11.946;2023-05-21T17:55:02;12.05;;;6.43;;
31348;SDS011;17976;48.480;11.946;2023-05-21T17:57:28;9.52;;;5.68;;
31348;SDS011;17976;48.480;11.946;2023-05-21T17:59:54;10.82;;;6.13;;
31348;SDS011;17976;48.480;11.946;2023-05-21T18:02:20;13.07;;;6.30;;
31348;SDS011;17976;48.480;11.946;2023-05-21T18:04:47;8.45;;;6.00;;
31348;SDS011;17976;48.480;11.946;2023-05-21T18:07:13;8.75;;;5.75;;
31348;SDS011;17976;48.480;11.946;2023-05-21T18:09:40;9.90;;;5.80;;
31348;SDS011;17976;48.480;11.946;2023-05-21T18:12:06;9.60;;;5.68;;
31348;SDS011;17976;48.480;11.946;2023-05-21T18:14:33;9.55;;;5.97;;
31348;SDS011;17976;48.480;11.946;2023-05-21T18:16:59;9.63;;;6.00;;
31348;SDS011;17976;48.480;11.946;2023-05-21T18:19:25;10.05;;;6.32;;
31348;SDS011;17976;48.480;11.946;2023-05-21T18:21:51;11.27;;;6.68;;
31348;SDS011;17976;48.480;11.946;2023-05-21T18:24:16;7.43;;;5.65;;
31348;SDS011;17976;48.480;11.946;2023-05-21T18:26:42;8.48;;;6.47;;
31348;SDS011;17976;48.480;11.946;2023-05-21T18:29:09;9.85;;;6.32;;
31348;SDS011;17976;48.480;11.946;2023-05-21T18:31:36;8.90;;;6.05;;
31348;SDS011;17976;48.480;11.946;2023-05-21T18:34:02;11.60;;;6.22;;
31348;SDS011;17976;48.480;11.946;2023-05-21T18:36:28;7.68;;;5.60;;
31348;SDS011;17976;48.480;11.946;2023-05-21T18:39:02;8.68;;;6.90;;
31348;SDS011;17976;48.480;11.946;2023-05-21T18:41:28;6.95;;;6.22;;
31348;SDS011;17976;48.480;11.946;2023-05-21T18:43:54;8.95;;;5.78;;
31348;SDS011;17976;48.480;11.946;2023-05-21T18:46:20;9.82;;;6.47;;
31348;SDS011;17976;48.480;11.946;2023-05-21T18:48:45;10.43;;;5.75;;
31348;SDS011;17976;48.480;11.946;2023-05-21T18:51:12;10.05;;;6.45;;
31348;SDS011;17976;48.480;11.946;2023-05-21T18:53:38;15.27;;;6.88;;
31348;SDS011;17976;48.480;11.946;2023-05-21T18:56:04;9.98;;;6.50;;
31348;SDS011;17976;48.480;11.946;2023-05-21T18:58:34;8.98;;;6.28;;
31348;SDS011;17976;48.480;11.946;2023-05-21T19:01:00;10.35;;;6.68;;
31348;SDS011;17976;48.480;11.946;2023-05-21T19:03:26;8.65;;;6.63;;
31348;SDS011;17976;48.480;11.946;2023-05-21T19:05:53;11.95;;;6.40;;
31348;SDS011;17976;48.480;11.946;2023-05-21T19:08:19;7.20;;;6.18;;
31348;SDS011;17976;48.480;11.946;2023-05-21T19:10:45;12.43;;;6.57;;
31348;SDS011;17976;48.480;11.946;2023-05-21T19:13:11;11.40;;;6.35;;
31348;SDS011;17976;48.480;11.946;2023-05-21T19:15:37;9.52;;;6.65;;
31348;SDS011;17976;48.480;11.946;2023-05-21T19:18:03;9.20;;;6.35;;
31348;SDS011;17976;48.480;11.946;2023-05-21T19:20:29;10.02;;;6.25;;
31348;SDS011;17976;48.480;11.946;2023-05-21T19:22:55;9.10;;;6.05;;
31348;SDS011;17976;48.480;11.946;2023-05-21T19:25:21;10.48;;;6.43;;
31348;SDS011;17976;48.480;11.946;2023-05-21T19:27:48;14.93;;;6.55;;
31348;SDS011;17976;48.480;11.946;2023-05-21T19:30:14;11.20;;;6.07;;
31348;SDS011;17976;48.480;11.946;2023-05-21T19:32:39;8.48;;;6.00;;
31348;SDS011;17976;48.480;11.946;2023-05-21T19:35:06;8.25;;;5.70;;
31348;SDS011;17976;48.480;11.946;2023-05-21T19:37:32;8.65;;;5.93;;
31348;SDS011;17976;48.480;11.946;2023-05-21T19:39:58;9.93;;;6.03;;
31348;SDS011;17976;48.480;11.946;2023-05-21T19:42:23;9.88;;;5.43;;
31348;SDS011;17976;48.480;11.946;2023-05-21T19:44:49;9.25;;;6.18;;
31348;SDS011;17976;48.480;11.946;2023-05-21T19:47:15;9.80;;;6.03;;
31348;SDS011;17976;48.480;11.946;2023-05-21T19:49:41;11.93;;;6.47;;
31348;SDS011;17976;48.480;11.946;2023-05-21T19:52:07;11.13;;;6.00;;
31348;SDS011;17976;48.480;11.946;2023-05-21T19:54:34;9.98;;;5.88;;
31348;SDS011;17976;48.480;11.946;2023-05-21T19:57:00;8.82;;;6.43;;
31348;SDS011;17976;48.480;11.946;2023-05-21T19:59:26;12.68;;;6.90;;
